Time;durP1;ratioP1;P1;durP2;ratioP2;P2;SDS_P1;SDS_P2;PMS_P1;PMS_P2;Temp;Humidity;BMP_temperature;BMP_pressure;BME280_temperature;BME280_humidity;BME280_pressure;Samples;Min_cycle;Max_cycle;Signal;HPM_P1;HPM_P2
2023/03/04 00:01:16;;;;;;;17.80;2.80;;;5.80;99.90;;;;;;5004284;28;20081;-94
2023/03/04 00:03:42;;;;;;;20.30;2.83;;;5.80;99.90;;;;;;4999580;28;20034;-94
2023/03/04 00:06:08;;;;;;;15.95;2.67;;;5.80;99.90;;;;;;5008886;28;20054;-94
2023/03/04 00:08:35;;;;;;;14.77;2.60;;;5.80;99.90;;;;;;5018685;28;20073;-94
2023/03/04 00:11:00;;;;;;;13.65;2.20;;;5.70;99.90;;;;;;5020531;28;20120;-93
2023/03/04 00:13:26;;;;;;;14.40;2.75;;;5.40;99.90;;;;;;5003884;28;20083;-94
2023/03/04 00:15:52;;;;;;;17.38;2.60;;;5.70;99.90;;;;;;5020008;28;20038;-93
2023/03/04 00:18:19;;;;;;;16.42;2.50;;;5.60;99.90;;;;;;5019490;28;20124;-94
2023/03/04 00:20:46;;;;;;;15.25;2.63;;;5.70;99.90;;;;;;4986033;28;20490;-94
2023/03/04 00:23:12;;;;;;;14.18;2.65;;;5.70;99.90;;;;;;4991614;28;20133;-94
2023/03/04 00:25:37;;;;;;;16.60;2.65;;;5.70;99.90;;;;;;5014313;28;20131;-95
2023/03/04 00:28:03;;;;;;;19.75;3.13;;;5.70;99.90;;;;;;5001626;28;20573;-94
2023/03/04 00:30:29;;;;;;;14.52;2.65;;;5.70;99.90;;;;;;5001656;28;20044;-94
2023/03/04 00:32:55;;;;;;;14.65;2.72;;;5.70;99.90;;;;;;5001851;28;20044;-94
2023/03/04 00:35:21;;;;;;;13.57;2.30;;;5.70;99.90;;;;;;5005203;28;20045;-95
2023/03/04 00:37:47;;;;;;;15.15;2.70;;;5.70;99.90;;;;;;5001321;28;20428;-94
2023/03/04 00:40:13;;;;;;;16.88;2.80;;;5.70;99.90;;;;;;5001166;28;20095;-93
2023/03/04 00:42:39;;;;;;;14.50;2.50;;;5.70;99.90;;;;;;4984178;28;20136;-94
2023/03/04 00:45:05;;;;;;;12.82;2.40;;;5.10;99.90;;;;;;5017828;28;20073;-94
2023/03/04 00:47:31;;;;;;;16.77;2.80;;;5.60;99.90;;;;;;4998396;28;20046;-94
2023/03/04 00:49:57;;;;;;;14.07;2.40;;;5.70;99.90;;;;;;5001155;28;20484;-94
2023/03/04 00:52:22;;;;;;;13.77;2.53;;;5.60;99.90;;;;;;5016151;28;20084;-94
2023/03/04 00:54:48;;;;;;;17.45;2.83;;;5.60;99.90;;;;;;4997279;28;20076;-94
2023/03/04 00:57:14;;;;;;;14.75;2.28;;;5.60;99.90;;;;;;4997962;28;20041;-94
2023/03/04 00:59:42;;;;;;;15.52;2.50;;;5.60;99.90;;;;;;4981218;28;20488;-95
2023/03/04 01:02:09;;;;;;;14.80;2.22;;;5.60;99.90;;;;;;5001964;28;20106;-94
2023/03/04 01:04:35;;;;;;;13.68;2.45;;;5.60;99.90;;;;;;5016940;28;20048;-94
2023/03/04 01:07:01;;;;;;;17.85;2.70;;;5.60;99.90;;;;;;4997708;28;20060;-95
2023/03/04 01:09:27;;;;;;;12.45;2.42;;;5.60;99.90;;;;;;4985136;28;20493;-94
2023/03/04 01:11:52;;;;;;;12.75;2.50;;;5.60;99.90;;;;;;4999380;28;20124;-94
2023/03/04 01:14:18;;;;;;;15.05;2.47;;;5.60;99.90;;;;;;5016816;28;20046;-94
2023/03/04 01:16:44;;;;;;;17.85;2.75;;;5.60;99.90;;;;;;5017046;28;20033;-94
2023/03/04 01:19:10;;;;;;;17.02;2.50;;;5.60;99.90;;;;;;5015222;28;20481;-94
2023/03/04 01:21:36;;;;;;;17.80;2.75;;;5.40;99.90;;;;;;4999616;28;20034;-95
2023/03/04 01:24:02;;;;;;;12.30;2.38;;;5.60;99.90;;;;;;5000731;28;20037;-93
2023/03/04 01:26:28;;;;;;;12.82;2.42;;;5.60;99.90;;;;;;5016623;28;20508;-94
2023/03/04 01:28:54;;;;;;;13.73;2.53;;;5.50;99.90;;;;;;5010099;28;20041;-94
2023/03/04 01:31:19;;;;;;;12.80;2.45;;;5.60;99.90;;;;;;4984329;28;20091;-93
2023/03/04 01:33:45;;;;;;;17.90;2.40;;;5.60;99.90;;;;;;4989102;28;20045;-93
2023/03/04 01:36:11;;;;;;;16.10;2.20;;;5.60;99.90;;;;;;5033138;28;20556;-94
2023/03/04 01:38:37;;;;;;;13.43;2.10;;;5.60;99.90;;;;;;4984663;28;20481;-94
2023/03/04 01:41:03;;;;;;;13.77;2.63;;;5.60;99.90;;;;;;4984369;28;20030;-94
2023/03/04 01:43:30;;;;;;;13.50;2.25;;;5.60;99.90;;;;;;5000903;28;20033;-95
2023/03/04 01:45:57;;;;;;;14.32;2.42;;;5.50;99.90;;;;;;5016475;28;20041;-95
2023/03/04 01:48:30;;;;;;;11.88;2.30;;;5.50;99.90;;;;;;5033391;28;20037;-93
2023/03/04 01:50:58;;;;;;;13.43;2.22;;;5.50;99.90;;;;;;5017194;28;20125;-94
2023/03/04 01:53:26;;;;;;;14.65;2.67;;;5.60;99.90;;;;;;5033974;28;20048;-94
2023/03/04 01:55:55;;;;;;;11.35;2.40;;;5.60;99.90;;;;;;5016755;28;20489;-94
2023/03/04 01:58:24;;;;;;;13.82;2.13;;;5.60;99.90;;;;;;5001081;28;20041;-94
2023/03/04 02:00:50;;;;;;;13.25;2.35;;;5.60;99.90;;;;;;5007078;28;20042;-94
2023/03/04 02:03:20;;;;;;;11.93;2.35;;;5.60;99.90;;;;;;5033967;28;20516;-94
2023/03/04 02:05:49;;;;;;;13.52;2.08;;;5.50;99.90;;;;;;5037334;28;20050;-94
2023/03/04 02:08:18;;;;;;;13.10;2.20;;;5.60;99.90;;;;;;5007239;28;20049;-94
2023/03/04 02:10:44;;;;;;;14.57;2.20;;;5.60;99.90;;;;;;5018466;28;20048;-94
2023/03/04 02:13:12;;;;;;;12.18;2.10;;;5.50;99.90;;;;;;4990457;28;20080;-94
2023/03/04 02:15:38;;;;;;;13.95;2.28;;;5.50;99.90;;;;;;4999892;28;20488;-94
2023/03/04 02:18:16;;;;;;;13.02;2.00;;;5.50;99.90;;;;;;5037073;28;20129;-93
2023/03/04 02:21:01;;;;;;;13.45;2.50;;;5.40;99.90;;;;;;5018645;28;20044;-93
2023/03/04 02:23:48;;;;;;;15.25;2.55;;;5.50;99.90;;;;;;5020207;28;20172;-94
2023/03/04 02:26:17;;;;;;;17.15;2.80;;;5.50;99.90;;;;;;5024015;28;20029;-94
2023/03/04 02:28:44;;;;;;;18.77;2.70;;;5.50;99.90;;;;;;5037326;28;20037;-94
2023/03/04 02:31:35;;;;;;;16.25;2.42;;;5.50;99.90;;;;;;5020520;28;20037;-95
2023/03/04 02:34:16;;;;;;;13.75;2.38;;;5.50;99.90;;;;;;5019141;28;20180;-94
2023/03/04 02:36:43;;;;;;;18.45;2.67;;;5.50;99.90;;;;;;5036074;28;20091;-94
2023/03/04 02:39:24;;;;;;;12.98;2.22;;;5.50;99.90;;;;;;5002751;28;20034;-93
2023/03/04 02:41:53;;;;;;;14.35;2.10;;;5.50;99.90;;;;;;5016694;28;20524;-94
2023/03/04 02:44:22;;;;;;;15.77;2.33;;;5.50;99.90;;;;;;5017334;28;20134;-95
2023/03/04 02:46:48;;;;;;;11.30;2.17;;;5.50;99.90;;;;;;5019830;28;20037;-95
2023/03/04 02:49:14;;;;;;;13.45;2.47;;;5.50;99.90;;;;;;5017717;28;20045;-94
2023/03/04 02:51:40;;;;;;;13.23;2.10;;;5.50;99.90;;;;;;5017000;28;20038;-94
2023/03/04 02:54:22;;;;;;;14.07;2.40;;;5.50;99.90;;;;;;4997788;28;20076;-94
2023/03/04 02:56:53;;;;;;;16.48;2.35;;;5.40;99.90;;;;;;5036076;28;20029;-94
2023/03/04 02:59:21;;;;;;;14.10;2.17;;;5.50;99.90;;;;;;5035703;28;20069;-94
2023/03/04 03:01:47;;;;;;;18.50;2.50;;;5.50;99.90;;;;;;5003412;28;20034;-94
2023/03/04 03:04:13;;;;;;;14.00;2.20;;;5.40;99.90;;;;;;5020076;28;20056;-94
2023/03/04 03:06:40;;;;;;;11.80;2.03;;;5.70;99.90;;;;;;4999475;28;20054;-95
2023/03/04 03:09:06;;;;;;;13.57;2.45;;;5.40;99.90;;;;;;5011312;28;20068;-94
2023/03/04 03:11:33;;;;;;;15.27;2.40;;;5.40;99.90;;;;;;5019164;28;20040;-93
2023/03/04 03:13:58;;;;;;;14.02;2.20;;;5.40;99.90;;;;;;5015329;28;20104;-94
2023/03/04 03:16:24;;;;;;;17.27;2.30;;;5.30;99.90;;;;;;4982705;28;20037;-94
2023/03/04 03:18:50;;;;;;;14.15;2.28;;;5.30;99.90;;;;;;5016050;28;20120;-94
2023/03/04 03:21:16;;;;;;;11.57;2.10;;;5.30;99.90;;;;;;4996489;28;20077;-94
2023/03/04 03:23:42;;;;;;;14.40;2.30;;;5.30;99.90;;;;;;5007290;28;20037;-93
2023/03/04 03:26:09;;;;;;;11.95;2.60;;;5.30;99.90;;;;;;4999292;28;20046;-93
2023/03/04 03:28:35;;;;;;;12.07;2.42;;;5.30;99.90;;;;;;5028617;28;20048;-93
2023/03/04 03:31:01;;;;;;;14.00;2.55;;;5.30;99.90;;;;;;5019011;28;20412;-94
2023/03/04 03:33:27;;;;;;;11.65;2.33;;;5.30;99.90;;;;;;5000419;28;20069;-94
2023/03/04 03:35:53;;;;;;;15.73;2.65;;;5.30;99.90;;;;;;5001184;28;20053;-94
2023/03/04 03:38:19;;;;;;;14.98;2.45;;;5.20;99.90;;;;;;5019353;28;20041;-94
2023/03/04 03:40:45;;;;;;;16.00;2.63;;;5.30;99.90;;;;;;5018467;28;20445;-94
2023/03/04 03:43:10;;;;;;;15.35;2.50;;;5.20;99.90;;;;;;4987006;28;20042;-94
2023/03/04 03:45:39;;;;;;;12.48;2.38;;;5.20;99.90;;;;;;5004159;28;20037;-94
2023/03/04 03:48:05;;;;;;;12.65;2.17;;;5.20;99.90;;;;;;4989652;28;20037;-94
2023/03/04 03:50:32;;;;;;;14.68;2.35;;;5.20;99.90;;;;;;5035448;28;20038;-94
2023/03/04 03:52:58;;;;;;;11.93;2.40;;;5.20;99.90;;;;;;5019831;28;20448;-95
2023/03/04 03:55:24;;;;;;;14.07;2.28;;;5.20;99.90;;;;;;4999372;28;20473;-94
2023/03/04 03:57:49;;;;;;;15.60;2.40;;;5.20;99.90;;;;;;5026533;28;20040;-94
2023/03/04 04:00:16;;;;;;;13.70;2.40;;;5.20;99.90;;;;;;5002430;28;20473;-94
2023/03/04 04:02:42;;;;;;;15.65;2.50;;;5.20;99.90;;;;;;5019148;28;20095;-94
2023/03/04 04:05:09;;;;;;;14.50;2.30;;;5.20;99.90;;;;;;5002812;28;20058;-94
2023/03/04 04:07:35;;;;;;;12.18;2.10;;;5.20;99.90;;;;;;4998673;28;20037;-95
2023/03/04 04:10:02;;;;;;;15.90;2.45;;;5.20;99.90;;;;;;4988921;28;20132;-94
2023/03/04 04:12:27;;;;;;;15.63;2.30;;;4.40;99.90;;;;;;5038983;28;20046;-94
2023/03/04 04:14:53;;;;;;;13.77;2.15;;;4.40;99.90;;;;;;4980802;28;20048;-94
2023/03/04 04:17:19;;;;;;;15.50;2.45;;;5.20;99.90;;;;;;5005213;28;20033;-95
2023/03/04 04:19:45;;;;;;;12.27;1.95;;;5.20;99.90;;;;;;5018806;28;20041;-94
2023/03/04 04:22:14;;;;;;;11.27;2.10;;;5.20;99.90;;;;;;5042785;28;20025;-94
2023/03/04 04:24:40;;;;;;;12.43;2.40;;;5.20;99.90;;;;;;5028453;28;20021;-95
2023/03/04 04:27:06;;;;;;;14.52;2.33;;;5.20;99.90;;;;;;5026383;28;20056;-94
2023/03/04 04:29:32;;;;;;;13.02;2.00;;;5.20;99.90;;;;;;5023576;28;20028;-94
2023/03/04 04:31:58;;;;;;;11.15;2.20;;;5.20;99.90;;;;;;5016648;28;20077;-94
2023/03/04 04:34:24;;;;;;;14.00;2.30;;;5.20;99.90;;;;;;5020598;28;20030;-95
2023/03/04 04:36:50;;;;;;;14.30;2.40;;;5.20;99.90;;;;;;5021023;28;20021;-95
2023/03/04 04:39:16;;;;;;;11.98;2.22;;;5.20;99.90;;;;;;5018840;28;20120;-94
2023/03/04 04:41:43;;;;;;;16.40;2.50;;;5.20;99.90;;;;;;5039573;28;20033;-94
2023/03/04 04:44:10;;;;;;;12.82;2.35;;;5.20;99.90;;;;;;5054336;28;20037;-95
2023/03/04 04:46:36;;;;;;;12.50;2.65;;;5.20;99.90;;;;;;5024262;28;20073;-95
2023/03/04 04:49:03;;;;;;;14.45;2.40;;;5.20;99.90;;;;;;5015840;28;20038;-95
2023/03/04 04:51:29;;;;;;;12.98;2.20;;;5.20;99.90;;;;;;5036783;28;20052;-95
2023/03/04 04:53:55;;;;;;;12.55;2.10;;;5.20;99.90;;;;;;5022027;28;20050;-96
2023/03/04 04:56:25;;;;;;;12.00;2.20;;;5.10;99.90;;;;;;5032022;28;20063;-95
2023/03/04 04:58:52;;;;;;;15.95;2.20;;;5.10;99.90;;;;;;5022027;28;20042;-94
2023/03/04 05:01:18;;;;;;;15.23;2.30;;;5.10;99.90;;;;;;5050922;28;20036;-95
2023/03/04 05:03:44;;;;;;;15.63;2.15;;;5.20;99.90;;;;;;5041429;28;20053;-96
2023/03/04 05:06:11;;;;;;;10.80;2.13;;;5.20;99.90;;;;;;5030359;28;20044;-96
2023/03/04 05:08:37;;;;;;;13.38;2.15;;;5.20;99.90;;;;;;5037744;28;20025;-95
2023/03/04 05:11:04;;;;;;;11.70;2.00;;;5.20;99.90;;;;;;5021564;28;20049;-95
2023/03/04 05:13:30;;;;;;;11.52;2.00;;;5.20;99.90;;;;;;5036695;28;20040;-95
2023/03/04 05:15:56;;;;;;;12.02;2.03;;;5.10;99.90;;;;;;5041284;28;20026;-95
2023/03/04 05:18:24;;;;;;;14.57;2.42;;;5.20;99.90;;;;;;5028314;28;20030;-95
2023/03/04 05:20:52;;;;;;;13.38;2.20;;;5.10;99.90;;;;;;5051835;28;20034;-95
2023/03/04 05:23:18;;;;;;;12.10;2.35;;;5.10;99.90;;;;;;5005526;28;20049;-95
2023/03/04 05:25:43;;;;;;;13.32;2.50;;;5.10;99.90;;;;;;5010896;28;20052;-95
2023/03/04 05:28:12;;;;;;;12.52;2.47;;;5.80;99.90;;;;;;5024938;28;20132;-95
2023/03/04 05:30:39;;;;;;;13.85;2.42;;;5.10;99.90;;;;;;5025452;28;20102;-95
2023/03/04 05:33:07;;;;;;;12.75;2.08;;;5.00;99.90;;;;;;5009635;28;20041;-95
2023/03/04 05:35:38;;;;;;;11.10;2.00;;;5.10;99.90;;;;;;5008326;28;20057;-95
2023/03/04 05:38:05;;;;;;;12.65;2.25;;;5.00;99.90;;;;;;5011977;28;20041;-94
2023/03/04 05:40:31;;;;;;;12.15;2.33;;;5.00;99.90;;;;;;4991523;28;20103;-95
2023/03/04 05:42:58;;;;;;;10.38;2.08;;;5.00;99.90;;;;;;5020343;28;20359;-95
2023/03/04 05:45:25;;;;;;;13.13;2.20;;;5.00;99.90;;;;;;5021514;28;20044;-95
2023/03/04 05:47:50;;;;;;;11.60;2.13;;;4.90;99.90;;;;;;5005473;28;20175;-96
2023/03/04 05:50:17;;;;;;;15.15;2.53;;;4.90;99.90;;;;;;5001935;28;20398;-95
2023/03/04 05:52:42;;;;;;;14.35;2.47;;;4.90;99.90;;;;;;5030176;28;20069;-96
2023/03/04 05:55:08;;;;;;;16.08;2.38;;;4.90;99.90;;;;;;5020657;28;20152;-95
2023/03/04 05:57:34;;;;;;;15.35;2.50;;;4.80;99.90;;;;;;5005798;28;20034;-95
2023/03/04 06:00:00;;;;;;;13.32;2.22;;;4.80;99.90;;;;;;5005442;28;20038;-96
2023/03/04 06:02:26;;;;;;;12.63;2.38;;;4.90;99.90;;;;;;5005038;28;20033;-95
2023/03/04 06:04:52;;;;;;;14.88;2.35;;;4.90;99.90;;;;;;5004780;28;20404;-95
2023/03/04 06:07:18;;;;;;;11.55;2.03;;;4.90;99.90;;;;;;5018587;28;20056;-95
2023/03/04 06:09:44;;;;;;;11.88;2.45;;;4.90;99.90;;;;;;5012269;28;20060;-95
2023/03/04 06:12:11;;;;;;;11.88;2.25;;;4.90;99.90;;;;;;5004363;28;20041;-95
2023/03/04 06:14:41;;;;;;;12.45;2.25;;;4.90;99.90;;;;;;5045996;28;20489;-96
2023/03/04 06:17:06;;;;;;;11.35;2.50;;;4.90;99.90;;;;;;5007192;28;20056;-95
2023/03/04 06:19:32;;;;;;;13.88;2.53;;;4.90;99.90;;;;;;5037123;28;20505;-96
2023/03/04 06:21:58;;;;;;;16.77;2.85;;;4.90;99.90;;;;;;5020129;28;20042;-95
2023/03/04 06:24:24;;;;;;;16.73;2.78;;;4.90;99.90;;;;;;5020487;28;20045;-95
2023/03/04 06:26:50;;;;;;;13.18;2.55;;;4.80;99.90;;;;;;5003379;28;20042;-96
2023/03/04 06:29:16;;;;;;;13.85;2.72;;;4.80;99.90;;;;;;5001725;28;20382;-95
2023/03/04 06:31:42;;;;;;;13.00;2.80;;;4.90;99.90;;;;;;5019845;28;20052;-95
2023/03/04 06:34:08;;;;;;;11.98;2.63;;;4.20;99.90;;;;;;5003971;28;20037;-95
2023/03/04 06:36:34;;;;;;;11.35;2.65;;;4.90;99.90;;;;;;5033503;28;20049;-95
2023/03/04 06:39:04;;;;;;;10.63;2.60;;;4.90;99.90;;;;;;5016836;28;20034;-94
2023/03/04 06:41:30;;;;;;;11.57;2.17;;;5.00;99.90;;;;;;5013821;28;20034;-91
2023/03/04 06:43:56;;;;;;;12.57;2.60;;;4.90;99.90;;;;;;5013526;28;20041;-92
2023/03/04 06:46:22;;;;;;;13.38;2.85;;;4.90;99.90;;;;;;5000863;28;20042;-90
2023/03/04 06:48:51;;;;;;;12.50;2.70;;;5.00;99.90;;;;;;5034588;28;20045;-89
2023/03/04 06:51:17;;;;;;;17.27;3.30;;;5.00;99.90;;;;;;5023561;28;20125;-94
2023/03/04 06:53:43;;;;;;;12.43;2.70;;;5.00;99.90;;;;;;5017165;28;20104;-91
2023/03/04 06:56:11;;;;;;;11.50;2.72;;;5.00;99.90;;;;;;5014221;28;20034;-92
2023/03/04 06:58:37;;;;;;;11.82;2.83;;;5.10;99.90;;;;;;4997320;28;20033;-88
2023/03/04 07:01:20;;;;;;;14.15;2.85;;;5.00;99.90;;;;;;5019810;28;20052;-94
2023/03/04 07:03:47;;;;;;;11.32;3.00;;;5.10;99.90;;;;;;5032618;28;20042;-91
2023/03/04 07:06:15;;;;;;;10.27;2.33;;;5.10;99.90;;;;;;5018050;28;20054;-91
2023/03/04 07:08:41;;;;;;;13.82;2.88;;;5.10;99.90;;;;;;5005495;28;20072;-92
2023/03/04 07:11:07;;;;;;;11.63;2.55;;;5.20;99.90;;;;;;5028764;28;20401;-94
2023/03/04 07:13:37;;;;;;;13.85;2.90;;;5.20;99.90;;;;;;5032218;28;20125;-91
2023/03/04 07:16:08;;;;;;;13.90;3.00;;;5.30;99.90;;;;;;4999247;28;20038;-95
2023/03/04 07:18:34;;;;;;;13.13;2.70;;;5.20;99.90;;;;;;5029785;28;20512;-95
2023/03/04 07:21:00;;;;;;;13.88;2.80;;;5.30;99.90;;;;;;5001174;28;20034;-91
2023/03/04 07:23:26;;;;;;;14.70;2.45;;;5.30;99.90;;;;;;5017983;28;20045;-92
2023/03/04 07:25:52;;;;;;;15.23;2.58;;;5.30;99.90;;;;;;5012180;28;20045;-92
2023/03/04 07:28:18;;;;;;;12.73;2.65;;;5.40;99.90;;;;;;5011239;28;20049;-93
2023/03/04 07:30:44;;;;;;;11.60;2.50;;;5.40;99.90;;;;;;5029286;28;20033;-91
2023/03/04 07:33:10;;;;;;;12.23;2.38;;;5.40;99.90;;;;;;5024135;28;20045;-92
2023/03/04 07:35:36;;;;;;;12.25;2.53;;;5.50;99.90;;;;;;4999526;28;20030;-95
2023/03/04 07:38:03;;;;;;;16.13;3.00;;;5.50;99.90;;;;;;5015480;28;20048;-92
2023/03/04 07:40:29;;;;;;;10.80;2.35;;;5.50;99.90;;;;;;5010679;28;20528;-93
2023/03/04 07:42:55;;;;;;;10.27;2.50;;;5.60;99.90;;;;;;5008209;28;20070;-94
2023/03/04 07:45:22;;;;;;;10.25;2.20;;;5.60;99.90;;;;;;5013246;28;20080;-94
2023/03/04 07:47:48;;;;;;;7.63;1.98;;;5.70;99.90;;;;;;5005681;28;20133;-94
2023/03/04 07:50:15;;;;;;;10.60;2.35;;;5.70;99.90;;;;;;5013597;28;20160;-93
2023/03/04 07:52:42;;;;;;;9.65;2.10;;;5.80;99.90;;;;;;5016753;28;20045;-92
2023/03/04 07:55:10;;;;;;;9.25;2.15;;;5.90;99.90;;;;;;5023072;28;20061;-94
2023/03/04 07:57:41;;;;;;;10.27;2.30;;;5.90;99.90;;;;;;5014140;28;20033;-94
2023/03/04 08:00:08;;;;;;;9.40;2.10;;;6.00;99.90;;;;;;5023742;28;20095;-94
2023/03/04 08:02:34;;;;;;;8.38;1.90;;;6.10;99.90;;;;;;5025214;28;20080;-94
2023/03/04 08:05:00;;;;;;;8.50;1.75;;;6.10;99.90;;;;;;5021517;28;20532;-95
2023/03/04 08:07:26;;;;;;;13.05;1.95;;;6.10;99.90;;;;;;5014569;28;20516;-95
2023/03/04 08:09:51;;;;;;;10.85;1.83;;;6.10;99.90;;;;;;4997251;28;20045;-91
2023/03/04 08:12:17;;;;;;;9.45;1.70;;;6.10;99.90;;;;;;4982562;28;20545;-93
2023/03/04 08:14:44;;;;;;;10.00;1.80;;;6.00;99.90;;;;;;5014057;28;20029;-95
2023/03/04 08:17:10;;;;;;;11.38;2.00;;;6.10;99.90;;;;;;5020607;28;20045;-95
2023/03/04 08:19:36;;;;;;;9.10;1.80;;;5.20;99.90;;;;;;4999815;28;20389;-93
2023/03/04 08:22:02;;;;;;;11.70;2.10;;;6.00;99.90;;;;;;5025327;28;20041;-92
2023/03/04 08:24:28;;;;;;;8.60;1.77;;;5.50;99.90;;;;;;5013005;28;20033;-93
2023/03/04 08:26:54;;;;;;;11.80;2.00;;;6.00;99.90;;;;;;4991611;28;20052;-91
2023/03/04 08:29:23;;;;;;;9.60;2.10;;;6.00;99.90;;;;;;5016330;28;20120;-91
2023/03/04 08:31:49;;;;;;;12.48;2.40;;;6.00;99.90;;;;;;5032953;28;20056;-90
2023/03/04 08:34:16;;;;;;;14.52;2.40;;;5.90;99.90;;;;;;5029488;28;20045;-91
2023/03/04 08:36:42;;;;;;;12.45;2.50;;;5.20;99.90;;;;;;4995695;28;20041;-90
2023/03/04 08:39:10;;;;;;;14.25;2.60;;;5.80;99.90;;;;;;5016539;28;20034;-91
2023/03/04 08:41:36;;;;;;;17.33;2.65;;;5.80;99.90;;;;;;5013453;28;20077;-90
2023/03/04 08:44:02;;;;;;;13.32;2.30;;;5.90;99.90;;;;;;5026868;28;20496;-90
2023/03/04 08:46:28;;;;;;;13.82;2.90;;;5.80;99.90;;;;;;5014273;28;20559;-91
2023/03/04 08:48:54;;;;;;;9.48;2.05;;;5.90;99.90;;;;;;5029949;28;20045;-91
2023/03/04 08:51:20;;;;;;;14.38;2.70;;;5.90;99.90;;;;;;4999206;28;20044;-89
2023/03/04 08:53:45;;;;;;;17.98;3.25;;;5.30;99.90;;;;;;5009068;28;20034;-90
2023/03/04 08:56:12;;;;;;;15.63;2.50;;;5.80;99.90;;;;;;4997843;28;20039;-91
2023/03/04 08:58:38;;;;;;;14.75;2.67;;;5.80;99.90;;;;;;5030696;28;20034;-91
2023/03/04 09:01:06;;;;;;;20.38;3.13;;;5.90;99.90;;;;;;5009991;28;20042;-92
2023/03/04 09:03:32;;;;;;;17.42;2.70;;;5.80;99.90;;;;;;5013713;28;20465;-91
2023/03/04 09:06:00;;;;;;;17.08;2.78;;;5.90;99.90;;;;;;4995352;28;20063;-91
2023/03/04 09:08:26;;;;;;;16.77;2.78;;;5.90;99.90;;;;;;5014774;28;20042;-91
2023/03/04 09:10:53;;;;;;;16.90;2.72;;;5.90;99.90;;;;;;4998149;28;20044;-91
2023/03/04 09:13:20;;;;;;;18.52;2.90;;;6.00;99.90;;;;;;5011083;28;20508;-91
2023/03/04 09:15:49;;;;;;;21.20;3.17;;;6.10;99.90;;;;;;5026839;28;20551;-91
2023/03/04 09:18:16;;;;;;;20.05;3.13;;;6.20;99.90;;;;;;5024180;28;20489;-90
2023/03/04 09:20:43;;;;;;;17.13;3.10;;;6.20;99.90;;;;;;5027397;28;20070;-90
2023/03/04 09:23:09;;;;;;;21.15;3.47;;;6.30;99.90;;;;;;5024027;28;20128;-90
2023/03/04 09:25:35;;;;;;;20.77;3.70;;;6.30;99.90;;;;;;5005700;28;20504;-91
2023/03/04 09:28:01;;;;;;;18.05;3.50;;;6.50;99.90;;;;;;5031425;28;20045;-90
2023/03/04 09:30:28;;;;;;;17.98;3.40;;;6.50;99.90;;;;;;5012569;28;20087;-90
2023/03/04 09:32:53;;;;;;;22.17;3.58;;;6.60;99.90;;;;;;5013343;28;20044;-91
2023/03/04 09:35:19;;;;;;;19.30;3.28;;;6.60;99.90;;;;;;4980234;28;20037;-90
2023/03/04 09:37:45;;;;;;;18.42;3.30;;;6.70;99.90;;;;;;4994252;28;20038;-90
2023/03/04 09:40:21;;;;;;;20.63;3.40;;;6.80;99.90;;;;;;4992933;28;20117;-90
2023/03/04 09:42:54;;;;;;;18.92;3.38;;;6.80;99.90;;;;;;5027851;28;20034;-90
2023/03/04 09:45:28;;;;;;;23.80;3.35;;;6.90;99.90;;;;;;5029073;28;20052;-90
2023/03/04 09:47:55;;;;;;;22.50;3.05;;;6.90;99.90;;;;;;5029806;28;20118;-90
2023/03/04 09:50:21;;;;;;;21.88;3.50;;;6.90;99.90;;;;;;5022509;28;20045;-91
2023/03/04 09:52:53;;;;;;;18.73;3.17;;;7.10;99.90;;;;;;5006184;28;20072;-90
2023/03/04 09:55:30;;;;;;;21.38;3.50;;;7.00;99.90;;;;;;5012978;28;20172;-90
2023/03/04 09:58:20;;;;;;;16.40;3.08;;;7.00;99.90;;;;;;5013893;28;20574;-90
2023/03/04 10:01:06;;;;;;;17.95;2.92;;;7.00;99.90;;;;;;5031288;28;20037;-90
2023/03/04 10:03:54;;;;;;;17.90;3.60;;;7.00;99.90;;;;;;5014665;28;20041;-90
2023/03/04 10:06:21;;;;;;;19.83;3.03;;;7.00;99.90;;;;;;5031477;28;20056;-89
2023/03/04 10:09:01;;;;;;;24.20;3.30;;;7.00;99.90;;;;;;5014718;28;20489;-90
2023/03/04 10:11:36;;;;;;;15.98;2.92;;;7.10;99.90;;;;;;5013794;28;20099;-90
2023/03/04 10:14:20;;;;;;;18.85;3.47;;;7.00;99.90;;;;;;5014386;28;20037;-90
2023/03/04 10:16:57;;;;;;;16.13;3.17;;;7.10;99.90;;;;;;5014442;28;20095;-91
2023/03/04 10:19:49;;;;;;;19.20;2.95;;;7.10;99.90;;;;;;5018514;28;20052;-90
2023/03/04 10:22:22;;;;;;;13.55;2.33;;;7.10;99.90;;;;;;5018217;28;20084;-90
2023/03/04 10:24:48;;;;;;;16.02;2.60;;;6.90;99.90;;;;;;5034388;28;20115;-90
2023/03/04 10:27:17;;;;;;;8.93;1.85;;;6.80;99.90;;;;;;5018539;28;20548;-90
2023/03/04 10:29:43;;;;;;;13.10;2.03;;;6.50;99.90;;;;;;5018053;28;20037;-90
2023/03/04 10:32:18;;;;;;;14.40;1.88;;;6.40;99.90;;;;;;4987821;28;20042;-90
2023/03/04 10:34:43;;;;;;;9.00;1.70;;;6.30;99.90;;;;;;5034226;28;20073;-90
2023/03/04 10:37:10;;;;;;;12.15;1.70;;;6.20;99.90;;;;;;5034587;28;20488;-90
2023/03/04 10:39:48;;;;;;;9.30;1.75;;;6.20;99.90;;;;;;5014286;28;20060;-90
2023/03/04 10:42:14;;;;;;;11.45;1.90;;;6.30;99.90;;;;;;5020832;28;20037;-90
2023/03/04 10:45:23;;;;;;;10.77;2.10;;;6.50;99.90;;;;;;5028302;28;20555;-90
2023/03/04 10:47:55;;;;;;;13.75;1.83;;;6.70;99.90;;;;;;5034158;28;20053;-90
2023/03/04 10:50:27;;;;;;;10.02;1.58;;;6.80;99.90;;;;;;5021370;28;20033;-90
2023/03/04 10:52:54;;;;;;;9.73;1.58;;;6.90;99.90;;;;;;5033943;28;20163;-90
2023/03/04 10:55:28;;;;;;;9.77;1.77;;;7.20;99.90;;;;;;4999146;28;20037;-89
2023/03/04 10:58:04;;;;;;;8.07;1.63;;;7.40;99.90;;;;;;4999021;28;20043;-90
2023/03/04 11:00:33;;;;;;;11.73;2.08;;;7.40;99.90;;;;;;5016101;28;20033;-90
2023/03/04 11:03:26;;;;;;;8.40;1.70;;;7.20;99.90;;;;;;5017728;28;20481;-90
2023/03/04 11:06:19;;;;;;;11.32;1.95;;;7.10;99.90;;;;;;5016891;28;20053;-90
2023/03/04 11:08:56;;;;;;;13.18;1.88;;;7.00;99.90;;;;;;5003231;28;20528;-90
2023/03/04 11:11:24;;;;;;;15.27;2.50;;;6.80;99.90;;;;;;5032965;28;20041;-90
2023/03/04 11:14:00;;;;;;;15.63;2.55;;;6.60;99.90;;;;;;5033551;28;20045;-90
2023/03/04 11:16:29;;;;;;;16.88;2.80;;;6.40;99.90;;;;;;5005836;28;20041;-90
2023/03/04 11:19:05;;;;;;;19.27;3.63;;;6.40;99.90;;;;;;5030609;28;20052;-90
2023/03/04 11:21:36;;;;;;;19.27;2.92;;;6.40;99.90;;;;;;5005797;28;20049;-90
2023/03/04 11:24:10;;;;;;;22.50;3.25;;;6.40;99.90;;;;;;5030989;28;20038;-90
2023/03/04 11:26:46;;;;;;;17.17;3.40;;;6.50;99.90;;;;;;5032679;28;20037;-90
2023/03/04 11:29:17;;;;;;;19.75;3.20;;;6.60;99.90;;;;;;5012843;28;20489;-90
2023/03/04 11:32:26;;;;;;;17.02;3.03;;;6.80;99.90;;;;;;5024421;28;20481;-90
2023/03/04 11:34:52;;;;;;;16.75;2.72;;;7.10;99.90;;;;;;4994397;28;20535;-90
2023/03/04 11:37:39;;;;;;;11.90;2.15;;;7.20;99.90;;;;;;5016626;28;20053;-91
2023/03/04 11:40:06;;;;;;;13.85;2.55;;;7.20;99.90;;;;;;5005978;28;20066;-90
2023/03/04 11:43:05;;;;;;;16.73;2.60;;;7.10;99.90;;;;;;5011887;28;20481;-91
2023/03/04 11:45:40;;;;;;;15.63;2.67;;;7.10;99.90;;;;;;5005260;28;20045;-90
2023/03/04 11:48:06;;;;;;;18.65;2.88;;;6.90;99.90;;;;;;5019145;28;20520;-91
2023/03/04 11:50:44;;;;;;;16.45;2.90;;;6.90;99.90;;;;;;5032742;28;20029;-89
2023/03/04 11:53:37;;;;;;;14.15;3.20;;;7.00;99.90;;;;;;5033035;28;20054;-90
2023/03/04 11:56:11;;;;;;;17.63;2.85;;;7.00;99.90;;;;;;5015644;28;20048;-89
2023/03/04 11:58:52;;;;;;;12.80;2.90;;;7.10;99.90;;;;;;5032458;28;20045;-90
2023/03/04 12:01:24;;;;;;;15.38;3.10;;;7.30;99.90;;;;;;5015966;28;20045;-90
2023/03/04 12:04:12;;;;;;;12.43;2.67;;;7.50;99.90;;;;;;5032698;28;20041;-90
2023/03/04 12:07:22;;;;;;;14.40;2.45;;;7.60;99.90;;;;;;5014219;28;20060;-90
2023/03/04 12:10:04;;;;;;;19.20;2.90;;;7.60;99.90;;;;;;5014909;28;20068;-90
2023/03/04 12:13:05;;;;;;;15.50;2.97;;;7.40;99.90;;;;;;5029325;28;20069;-90
2023/03/04 12:15:47;;;;;;;18.13;3.03;;;7.30;99.90;;;;;;5021181;28;20045;-90
2023/03/04 12:18:20;;;;;;;14.02;2.67;;;7.30;99.90;;;;;;5032764;28;20041;-90
2023/03/04 12:20:49;;;;;;;15.38;3.10;;;7.30;99.90;;;;;;5016001;28;20510;-90
2023/03/04 12:23:44;;;;;;;13.57;2.95;;;7.30;99.90;;;;;;5015795;28;20124;-90
2023/03/04 12:26:20;;;;;;;16.55;2.75;;;7.40;99.90;;;;;;5019493;28;20374;-90
2023/03/04 12:29:21;;;;;;;14.90;2.83;;;7.50;99.90;;;;;;5031117;28;20053;-90
2023/03/04 12:31:55;;;;;;;16.50;2.83;;;7.60;99.90;;;;;;5040767;28;20102;-90
2023/03/04 12:34:26;;;;;;;15.55;2.45;;;7.70;99.90;;;;;;5014929;28;20037;-90
2023/03/04 12:36:52;;;;;;;12.95;2.53;;;7.80;99.90;;;;;;5049107;28;20093;-91
2023/03/04 12:39:31;;;;;;;10.25;2.33;;;7.70;99.90;;;;;;5015240;28;20041;-91
2023/03/04 12:42:02;;;;;;;12.13;2.40;;;7.60;99.90;;;;;;5031942;28;20069;-90
2023/03/04 12:44:34;;;;;;;12.30;2.60;;;7.50;99.90;;;;;;5001047;28;20053;-92
2023/03/04 12:47:18;;;;;;;11.15;2.30;;;7.30;99.90;;;;;;5025364;28;20042;-90
2023/03/04 12:50:04;;;;;;;11.93;2.35;;;7.20;99.90;;;;;;5009505;28;20045;-90
2023/03/04 12:53:04;;;;;;;11.45;2.08;;;7.20;99.90;;;;;;5001958;28;20034;-91
2023/03/04 12:55:36;;;;;;;13.18;2.30;;;7.20;99.90;;;;;;5011599;28;20038;-90
2023/03/04 12:58:04;;;;;;;13.15;2.40;;;7.30;99.90;;;;;;5012316;28;20045;-90
2023/03/04 13:01:11;;;;;;;13.20;2.25;;;7.40;99.90;;;;;;5019480;28;20485;-91